sensor_id;sensor_type;location;lat;lon;timestamp;pressure;altitude;pressure_sealevel;temperature;humidity
77702;BME280;66868;42.708;23.404;2023-12-20T00:01:39;95571.09;;;-0.53;95.16
77702;BME280;66868;42.708;23.404;2023-12-20T00:04:05;95579.34;;;-0.51;94.81
77702;BME280;66868;42.708;23.404;2023-12-20T00:06:31;95578.63;;;-0.63;95.16
77702;BME280;66868;42.708;23.404;2023-12-20T00:08:56;95548.25;;;-0.99;95.30
77702;BME280;66868;42.708;23.404;2023-12-20T00:11:23;95570.41;;;-0.73;95.81
77702;BME280;66868;42.708;23.404;2023-12-20T00:13:49;95565.41;;;-0.67;96.19
77702;BME280;66868;42.708;23.404;2023-12-20T00:16:14;95557.03;;;-0.60;96.15
77702;BME280;66868;42.708;23.404;2023-12-20T00:18:40;95559.38;;;-0.41;96.09
77702;BME280;66868;42.708;23.404;2023-12-20T00:21:05;95562.66;;;-0.38;95.88
77702;BME280;66868;42.708;23.404;2023-12-20T00:23:31;95562.59;;;-0.29;96.01
77702;BME280;66868;42.708;23.404;2023-12-20T00:25:56;95562.59;;;-0.30;96.12
77702;BME280;66868;42.708;23.404;2023-12-20T00:28:21;95533.63;;;-0.36;96.15
77702;BME280;66868;42.708;23.404;2023-12-20T00:30:47;95550.03;;;-0.18;96.46
77702;BME280;66868;42.708;23.404;2023-12-20T00:33:13;95534.31;;;-0.19;95.84
77702;BME280;66868;42.708;23.404;2023-12-20T00:35:38;95535.88;;;-0.12;95.71
77702;BME280;66868;42.708;23.404;2023-12-20T00:38:04;95526.75;;;-0.10;95.90
77702;BME280;66868;42.708;23.404;2023-12-20T00:40:30;95521.81;;;-0.14;95.55
77702;BME280;66868;42.708;23.404;2023-12-20T00:42:56;95520.06;;;-0.06;95.61
77702;BME280;66868;42.708;23.404;2023-12-20T00:45:21;95524.22;;;-0.07;95.16
77702;BME280;66868;42.708;23.404;2023-12-20T00:47:46;95527.56;;;-0.12;94.64
77702;BME280;66868;42.708;23.404;2023-12-20T00:50:12;95532.56;;;-0.14;94.36
77702;BME280;66868;42.708;23.404;2023-12-20T00:52:37;95507.00;;;-0.26;94.71
77702;BME280;66868;42.708;23.404;2023-12-20T00:55:04;95520.16;;;-0.15;94.68
77702;BME280;66868;42.708;23.404;2023-12-20T00:57:29;95509.44;;;-0.19;94.45
77702;BME280;66868;42.708;23.404;2023-12-20T00:59:56;95510.22;;;-0.15;94.41
77702;BME280;66868;42.708;23.404;2023-12-20T01:02:21;95505.25;;;-0.17;94.71
77702;BME280;66868;42.708;23.404;2023-12-20T01:04:47;95506.91;;;-0.17;94.52
77702;BME280;66868;42.708;23.404;2023-12-20T01:07:12;95489.59;;;-0.26;94.14
77702;BME280;66868;42.708;23.404;2023-12-20T01:09:38;95497.78;;;-0.18;94.23
77702;BME280;66868;42.708;23.404;2023-12-20T01:12:03;95496.94;;;-0.17;93.50
77702;BME280;66868;42.708;23.404;2023-12-20T01:14:29;95495.38;;;-0.24;93.41
77702;BME280;66868;42.708;23.404;2023-12-20T01:16:54;95494.66;;;-0.32;93.86
77702;BME280;66868;42.708;23.404;2023-12-20T01:19:20;95490.53;;;-0.35;93.71
77702;BME280;66868;42.708;23.404;2023-12-20T01:21:45;95494.66;;;-0.34;93.52
77702;BME280;66868;42.708;23.404;2023-12-20T01:24:11;95482.25;;;-0.37;93.11
77702;BME280;66868;42.708;23.404;2023-12-20T01:26:36;95490.53;;;-0.36;92.91
77702;BME280;66868;42.708;23.404;2023-12-20T01:29:02;95489.78;;;-0.45;93.09
77702;BME280;66868;42.708;23.404;2023-12-20T01:31:27;95477.41;;;-0.51;92.59
77702;BME280;66868;42.708;23.404;2023-12-20T01:33:53;95474.97;;;-0.55;92.00
77702;BME280;66868;42.708;23.404;2023-12-20T01:36:18;95472.56;;;-0.63;92.31
77702;BME280;66868;42.708;23.404;2023-12-20T01:38:45;95469.31;;;-0.66;92.54
77702;BME280;66868;42.708;23.404;2023-12-20T01:41:10;95469.25;;;-0.63;92.66
77702;BME280;66868;42.708;23.404;2023-12-20T01:43:36;95460.97;;;-0.61;92.29
77702;BME280;66868;42.708;23.404;2023-12-20T01:46:01;95445.28;;;-0.66;92.70
77702;BME280;66868;42.708;23.404;2023-12-20T01:48:28;95459.31;;;-0.62;92.61
77702;BME280;66868;42.708;23.404;2023-12-20T01:50:55;95436.22;;;-0.73;92.42
77702;BME280;66868;42.708;23.404;2023-12-20T01:53:23;95435.38;;;-0.72;92.25
77702;BME280;66868;42.708;23.404;2023-12-20T01:55:52;95441.19;;;-0.70;91.84
77702;BME280;66868;42.708;23.404;2023-12-20T01:58:19;95442.78;;;-0.69;91.94
77702;BME280;66868;42.708;23.404;2023-12-20T02:00:45;95439.47;;;-0.68;91.74
77702;BME280;66868;42.708;23.404;2023-12-20T02:03:11;95437.81;;;-0.69;91.44
77702;BME280;66868;42.708;23.404;2023-12-20T02:05:37;95438.69;;;-0.70;91.78
77702;BME280;66868;42.708;23.404;2023-12-20T02:08:03;95390.94;;;-0.99;91.45
77702;BME280;66868;42.708;23.404;2023-12-20T02:10:29;95406.63;;;-0.94;91.68
77702;BME280;66868;42.708;23.404;2023-12-20T02:12:55;95420.59;;;-0.84;91.28
77702;BME280;66868;42.708;23.404;2023-12-20T02:15:21;95420.66;;;-0.90;91.65
77702;BME280;66868;42.708;23.404;2023-12-20T02:17:47;95424.72;;;-0.83;91.29
77702;BME280;66868;42.708;23.404;2023-12-20T02:20:13;95409.88;;;-0.89;92.32
77702;BME280;66868;42.708;23.404;2023-12-20T02:22:39;95410.75;;;-0.93;92.14
77702;BME280;66868;42.708;23.404;2023-12-20T02:25:04;95417.34;;;-0.89;92.14
77702;BME280;66868;42.708;23.404;2023-12-20T02:27:30;95321.84;;;-1.46;92.05
77702;BME280;66868;42.708;23.404;2023-12-20T02:29:56;95416.53;;;-0.91;92.37
77702;BME280;66868;42.708;23.404;2023-12-20T02:32:22;95409.97;;;-1.01;92.36
77702;BME280;66868;42.708;23.404;2023-12-20T02:34:51;95405.00;;;-0.98;92.68
77702;BME280;66868;42.708;23.404;2023-12-20T02:37:17;95410.06;;;-1.07;92.96
77702;BME280;66868;42.708;23.404;2023-12-20T02:39:42;95401.78;;;-1.09;93.12
77702;BME280;66868;42.708;23.404;2023-12-20T02:42:08;95400.97;;;-1.10;93.01
77702;BME280;66868;42.708;23.404;2023-12-20T02:44:33;95394.50;;;-1.26;92.92
77702;BME280;66868;42.708;23.404;2023-12-20T02:46:59;95397.81;;;-1.27;93.25
77702;BME280;66868;42.708;23.404;2023-12-20T02:49:24;95378.91;;;-1.42;93.89
77702;BME280;66868;42.708;23.404;2023-12-20T02:51:50;95391.28;;;-1.36;93.65
77702;BME280;66868;42.708;23.404;2023-12-20T02:54:15;95388.78;;;-1.39;93.73
77702;BME280;66868;42.708;23.404;2023-12-20T02:56:41;95391.28;;;-1.37;94.31
77702;BME280;66868;42.708;23.404;2023-12-20T02:59:06;95387.22;;;-1.46;94.26
77702;BME280;66868;42.708;23.404;2023-12-20T03:01:34;95348.47;;;-1.62;94.34
77702;BME280;66868;42.708;23.404;2023-12-20T03:04:00;95387.94;;;-1.33;94.76
77702;BME280;66868;42.708;23.404;2023-12-20T03:06:25;95394.53;;;-1.30;95.03
77702;BME280;66868;42.708;23.404;2023-12-20T03:08:51;95374.75;;;-1.40;95.54
77702;BME280;66868;42.708;23.404;2023-12-20T03:11:17;95389.63;;;-1.37;95.25
77702;BME280;66868;42.708;23.404;2023-12-20T03:13:42;95372.28;;;-1.43;96.29
77702;BME280;66868;42.708;23.404;2023-12-20T03:16:09;95392.97;;;-1.41;96.48
77702;BME280;66868;42.708;23.404;2023-12-20T03:18:35;95371.63;;;-1.63;96.40
77702;BME280;66868;42.708;23.404;2023-12-20T03:21:01;95375.72;;;-1.56;96.75
77702;BME280;66868;42.708;23.404;2023-12-20T03:23:26;95379.84;;;-1.53;96.98
77702;BME280;66868;42.708;23.404;2023-12-20T03:25:52;95359.22;;;-1.64;96.17
77702;BME280;66868;42.708;23.404;2023-12-20T03:28:18;95362.50;;;-1.58;96.65
77702;BME280;66868;42.708;23.404;2023-12-20T03:30:44;95369.06;;;-1.51;97.07
77702;BME280;66868;42.708;23.404;2023-12-20T03:33:10;95377.25;;;-1.43;97.14
77702;BME280;66868;42.708;23.404;2023-12-20T03:35:36;95350.88;;;-1.53;97.40
77702;BME280;66868;42.708;23.404;2023-12-20T03:38:01;95372.19;;;-1.30;96.98
77702;BME280;66868;42.708;23.404;2023-12-20T03:40:27;95370.47;;;-1.22;97.25
77702;BME280;66868;42.708;23.404;2023-12-20T03:42:52;95370.41;;;-1.18;97.13
77702;BME280;66868;42.708;23.404;2023-12-20T03:45:17;95367.94;;;-1.19;97.52
77702;BME280;66868;42.708;23.404;2023-12-20T03:47:43;95364.56;;;-1.12;97.42
77702;BME280;66868;42.708;23.404;2023-12-20T03:50:08;95357.13;;;-1.12;97.23
77702;BME280;66868;42.708;23.404;2023-12-20T03:52:34;95362.00;;;-1.06;96.92
77702;BME280;66868;42.708;23.404;2023-12-20T03:54:59;95357.00;;;-1.00;96.76
77702;BME280;66868;42.708;23.404;2023-12-20T03:57:25;95357.78;;;-0.97;96.89
77702;BME280;66868;42.708;23.404;2023-12-20T03:59:50;95358.53;;;-0.90;96.38
77702;BME280;66868;42.708;23.404;2023-12-20T04:02:16;95351.09;;;-0.92;96.57
77702;BME280;66868;42.708;23.404;2023-12-20T04:04:43;95335.47;;;-0.98;96.36
77702;BME280;66868;42.708;23.404;2023-12-20T04:07:08;95348.47;;;-0.78;95.99
77702;BME280;66868;42.708;23.404;2023-12-20T04:09:34;95344.31;;;-0.74;95.46
77702;BME280;66868;42.708;23.404;2023-12-20T04:11:59;95341.00;;;-0.75;95.59
77702;BME280;66868;42.708;23.404;2023-12-20T04:14:25;95291.63;;;-1.05;95.42
77702;BME280;66868;42.708;23.404;2023-12-20T04:16:50;95340.94;;;-0.70;95.18
77702;BME280;66868;42.708;23.404;2023-12-20T04:19:16;95351.63;;;-0.64;95.35
77702;BME280;66868;42.708;23.404;2023-12-20T04:21:41;95340.84;;;-0.63;95.77
77702;BME280;66868;42.708;23.404;2023-12-20T04:24:07;95320.25;;;-0.71;95.76
77702;BME280;66868;42.708;23.404;2023-12-20T04:26:33;95335.03;;;-0.62;95.85
77702;BME280;66868;42.708;23.404;2023-12-20T04:28:59;95334.16;;;-0.58;95.47
77702;BME280;66868;42.708;23.404;2023-12-20T04:31:24;95338.25;;;-0.54;95.85
77702;BME280;66868;42.708;23.404;2023-12-20T04:33:49;95302.91;;;-0.75;96.04
77702;BME280;66868;42.708;23.404;2023-12-20T04:36:15;95308.69;;;-0.75;95.94
77702;BME280;66868;42.708;23.404;2023-12-20T04:38:40;95324.25;;;-0.61;96.25
77702;BME280;66868;42.708;23.404;2023-12-20T04:41:06;95320.06;;;-0.56;96.11
77702;BME280;66868;42.708;23.404;2023-12-20T04:43:32;95318.34;;;-0.54;96.51
77702;BME280;66868;42.708;23.404;2023-12-20T04:45:57;95292.06;;;-0.71;96.45
77702;BME280;66868;42.708;23.404;2023-12-20T04:48:23;95324.88;;;-0.43;96.78
77702;BME280;66868;42.708;23.404;2023-12-20T04:50:48;95316.72;;;-0.55;96.33
77702;BME280;66868;42.708;23.404;2023-12-20T04:53:13;95316.72;;;-0.55;96.95
77702;BME280;66868;42.708;23.404;2023-12-20T04:55:39;95315.81;;;-0.48;96.73
77702;BME280;66868;42.708;23.404;2023-12-20T04:58:04;95301.72;;;-0.49;96.82
77702;BME280;66868;42.708;23.404;2023-12-20T05:00:30;95309.94;;;-0.43;96.87
77702;BME280;66868;42.708;23.404;2023-12-20T05:02:55;95302.50;;;-0.43;96.72
77702;BME280;66868;42.708;23.404;2023-12-20T05:05:21;95302.41;;;-0.37;96.87
77702;BME280;66868;42.708;23.404;2023-12-20T05:07:46;95308.94;;;-0.30;96.62
77702;BME280;66868;42.708;23.404;2023-12-20T05:10:12;95301.41;;;-0.26;96.75
77702;BME280;66868;42.708;23.404;2023-12-20T05:12:37;95302.25;;;-0.25;96.88
77702;BME280;66868;42.708;23.404;2023-12-20T05:15:05;95302.25;;;-0.25;97.14
77702;BME280;66868;42.708;23.404;2023-12-20T05:17:31;95292.38;;;-0.31;97.09
77702;BME280;66868;42.708;23.404;2023-12-20T05:19:56;95295.56;;;-0.22;96.95
77702;BME280;66868;42.708;23.404;2023-12-20T05:22:21;95294.97;;;-0.39;97.19
77702;BME280;66868;42.708;23.404;2023-12-20T05:24:47;95283.28;;;-0.32;96.65
77702;BME280;66868;42.708;23.404;2023-12-20T05:27:12;95283.22;;;-0.29;97.05
77702;BME280;66868;42.708;23.404;2023-12-20T05:29:38;95288.25;;;-0.32;97.26
77702;BME280;66868;42.708;23.404;2023-12-20T05:32:04;95287.44;;;-0.33;97.13
77702;BME280;66868;42.708;23.404;2023-12-20T05:34:32;95282.47;;;-0.36;97.45
77702;BME280;66868;42.708;23.404;2023-12-20T05:36:58;95274.50;;;-0.56;97.02
77702;BME280;66868;42.708;23.404;2023-12-20T05:39:23;95277.75;;;-0.54;97.58
77702;BME280;66868;42.708;23.404;2023-12-20T05:41:49;95275.34;;;-0.59;97.48
77702;BME280;66868;42.708;23.404;2023-12-20T05:44:14;95279.00;;;-0.85;97.91
77702;BME280;66868;42.708;23.404;2023-12-20T05:46:40;95275.63;;;-0.80;98.04
77702;BME280;66868;42.708;23.404;2023-12-20T05:49:06;95278.28;;;-0.94;98.52
77702;BME280;66868;42.708;23.404;2023-12-20T05:51:32;95252.88;;;-1.18;98.80
77702;BME280;66868;42.708;23.404;2023-12-20T05:53:58;95269.28;;;-1.02;98.93
77702;BME280;66868;42.708;23.404;2023-12-20T05:56:23;95266.81;;;-1.05;99.02
77702;BME280;66868;42.708;23.404;2023-12-20T05:58:49;95273.38;;;-1.00;99.52
77702;BME280;66868;42.708;23.404;2023-12-20T06:01:15;95261.00;;;-1.04;99.15
77702;BME280;66868;42.708;23.404;2023-12-20T06:03:42;95263.63;;;-1.16;99.94
77702;BME280;66868;42.708;23.404;2023-12-20T06:06:09;95258.66;;;-1.16;100.00
77702;BME280;66868;42.708;23.404;2023-12-20T06:08:34;95233.28;;;-1.40;100.00
77702;BME280;66868;42.708;23.404;2023-12-20T06:11:00;95257.16;;;-1.29;100.00
77702;BME280;66868;42.708;23.404;2023-12-20T06:13:25;95257.13;;;-1.28;100.00
77702;BME280;66868;42.708;23.404;2023-12-20T06:15:53;95262.81;;;-1.18;100.00
77702;BME280;66868;42.708;23.404;2023-12-20T06:18:19;95260.19;;;-1.06;100.00
77702;BME280;66868;42.708;23.404;2023-12-20T06:20:44;95258.50;;;-1.03;100.00
77702;BME280;66868;42.708;23.404;2023-12-20T06:23:10;95267.56;;;-1.00;100.00
77702;BME280;66868;42.708;23.404;2023-12-20T06:25:35;95271.75;;;-1.04;100.00
77702;BME280;66868;42.708;23.404;2023-12-20T06:28:00;95256.00;;;-1.01;100.00
77702;BME280;66868;42.708;23.404;2023-12-20T06:30:26;95257.63;;;-0.99;100.00
77702;BME280;66868;42.708;23.404;2023-12-20T06:32:53;95264.16;;;-0.90;100.00
77702;BME280;66868;42.708;23.404;2023-12-20T06:35:19;95243.50;;;-0.94;100.00
77702;BME280;66868;42.708;23.404;2023-12-20T06:37:44;95262.38;;;-0.79;100.00
77702;BME280;66868;42.708;23.404;2023-12-20T06:40:10;95257.34;;;-0.76;100.00
77702;BME280;66868;42.708;23.404;2023-12-20T06:42:36;95254.88;;;-0.77;100.00
77702;BME280;66868;42.708;23.404;2023-12-20T06:45:02;95262.38;;;-0.79;100.00
77702;BME280;66868;42.708;23.404;2023-12-20T06:47:27;95258.94;;;-0.72;100.00
77702;BME280;66868;42.708;23.404;2023-12-20T06:49:53;95252.38;;;-0.76;100.00
77702;BME280;66868;42.708;23.404;2023-12-20T06:52:18;95253.16;;;-0.74;100.00
77702;BME280;66868;42.708;23.404;2023-12-20T06:54:44;95240.66;;;-0.66;100.00
77702;BME280;66868;42.708;23.404;2023-12-20T06:57:09;95240.59;;;-0.62;100.00
77702;BME280;66868;42.708;23.404;2023-12-20T06:59:41;95237.28;;;-0.61;100.00
77702;BME280;66868;42.708;23.404;2023-12-20T07:02:06;95243.84;;;-0.60;100.00
77702;BME280;66868;42.708;23.404;2023-12-20T07:04:32;95247.09;;;-0.52;100.00
77702;BME280;66868;42.708;23.404;2023-12-20T07:06:57;95225.59;;;-0.56;100.00
77702;BME280;66868;42.708;23.404;2023-12-20T07:09:26;95222.06;;;-0.41;100.00
77702;BME280;66868;42.708;23.404;2023-12-20T07:11:52;95234.25;;;-0.24;100.00
77702;BME280;66868;42.708;23.404;2023-12-20T07:14:17;95230.81;;;-0.16;100.00
77702;BME280;66868;42.708;23.404;2023-12-20T07:16:43;95219.13;;;-0.12;100.00
77702;BME280;66868;42.708;23.404;2023-12-20T07:19:08;95215.59;;;0.03;100.00
77702;BME280;66868;42.708;23.404;2023-12-20T07:21:34;95226.97;;;0.16;100.00
77702;BME280;66868;42.708;23.404;2023-12-20T07:23:59;95221.22;;;0.12;100.00
77702;BME280;66868;42.708;23.404;2023-12-20T07:26:25;95229.28;;;0.26;100.00
77702;BME280;66868;42.708;23.404;2023-12-20T07:28:50;95217.59;;;0.31;99.50
77702;BME280;66868;42.708;23.404;2023-12-20T07:31:16;95195.31;;;0.24;99.29
77702;BME280;66868;42.708;23.404;2023-12-20T07:33:41;95205.75;;;0.42;99.36
77702;BME280;66868;42.708;23.404;2023-12-20T07:36:07;95216.34;;;0.55;98.50
77702;BME280;66868;42.708;23.404;2023-12-20T07:38:33;95216.25;;;0.58;98.33
77702;BME280;66868;42.708;23.404;2023-12-20T07:40:59;95218.72;;;0.60;97.92
77702;BME280;66868;42.708;23.404;2023-12-20T07:43:24;95223.72;;;0.60;98.31
77702;BME280;66868;42.708;23.404;2023-12-20T07:45:50;95219.59;;;0.57;97.98
77702;BME280;66868;42.708;23.404;2023-12-20T07:48:15;95217.28;;;0.47;98.09
77702;BME280;66868;42.708;23.404;2023-12-20T07:50:41;95219.56;;;0.59;97.94
77702;BME280;66868;42.708;23.404;2023-12-20T07:53:07;95223.59;;;0.66;98.12
77702;BME280;66868;42.708;23.404;2023-12-20T07:55:33;95188.84;;;0.60;97.66
77702;BME280;66868;42.708;23.404;2023-12-20T07:58:00;95207.69;;;0.73;98.10
77702;BME280;66868;42.708;23.404;2023-12-20T08:00:26;95203.47;;;0.75;98.26
77702;BME280;66868;42.708;23.404;2023-12-20T08:02:52;95172.09;;;0.68;97.45
77702;BME280;66868;42.708;23.404;2023-12-20T08:05:17;95205.69;;;0.90;97.98
77702;BME280;66868;42.708;23.404;2023-12-20T08:07:43;95206.41;;;0.95;97.42
77702;BME280;66868;42.708;23.404;2023-12-20T08:10:08;95205.50;;;0.98;97.60
77702;BME280;66868;42.708;23.404;2023-12-20T08:12:34;95207.22;;;0.97;97.28
77702;BME280;66868;42.708;23.404;2023-12-20T08:14:59;95177.75;;;0.74;97.05
77702;BME280;66868;42.708;23.404;2023-12-20T08:17:25;95196.56;;;0.89;97.26
77702;BME280;66868;42.708;23.404;2023-12-20T08:19:51;95196.38;;;0.98;97.33
77702;BME280;66868;42.708;23.404;2023-12-20T08:22:16;95177.25;;;1.00;97.13
77702;BME280;66868;42.708;23.404;2023-12-20T08:24:42;95187.00;;;1.11;96.99
77702;BME280;66868;42.708;23.404;2023-12-20T08:27:07;95182.88;;;1.08;96.74
77702;BME280;66868;42.708;23.404;2023-12-20T08:29:34;95189.34;;;1.17;96.71
77702;BME280;66868;42.708;23.404;2023-12-20T08:32:00;95188.50;;;1.16;96.51
77702;BME280;66868;42.708;23.404;2023-12-20T08:34:26;95180.84;;;1.25;95.90
77702;BME280;66868;42.708;23.404;2023-12-20T08:36:51;95165.94;;;1.24;95.66
77702;BME280;66868;42.708;23.404;2023-12-20T08:39:17;95175.72;;;1.33;95.64
77702;BME280;66868;42.708;23.404;2023-12-20T08:41:42;95171.47;;;1.37;95.47
77702;BME280;66868;42.708;23.404;2023-12-20T08:44:09;95168.88;;;1.40;95.25
77702;BME280;66868;42.708;23.404;2023-12-20T08:46:34;95153.38;;;1.28;95.49
77702;BME280;66868;42.708;23.404;2023-12-20T08:49:01;95157.13;;;1.45;95.10
77702;BME280;66868;42.708;23.404;2023-12-20T08:51:26;95149.94;;;1.34;95.32
77702;BME280;66868;42.708;23.404;2023-12-20T08:53:52;95140.75;;;1.34;94.92
77702;BME280;66868;42.708;23.404;2023-12-20T08:56:17;95128.44;;;1.28;95.26
77702;BME280;66868;42.708;23.404;2023-12-20T08:58:44;95145.53;;;1.44;94.81
77702;BME280;66868;42.708;23.404;2023-12-20T09:01:09;95141.47;;;1.40;94.57
77702;BME280;66868;42.708;23.404;2023-12-20T09:03:35;95139.69;;;1.45;94.93
77702;BME280;66868;42.708;23.404;2023-12-20T09:06:00;95110.91;;;1.31;95.17
77702;BME280;66868;42.708;23.404;2023-12-20T09:08:26;95108.31;;;1.36;95.29
77702;BME280;66868;42.708;23.404;2023-12-20T09:10:51;95115.53;;;1.47;95.17
77702;BME280;66868;42.708;23.404;2023-12-20T09:13:17;95112.13;;;1.51;94.70
77702;BME280;66868;42.708;23.404;2023-12-20T09:15:42;95097.91;;;1.54;94.38
77702;BME280;66868;42.708;23.404;2023-12-20T09:18:08;95055.91;;;1.38;95.13
77702;BME280;66868;42.708;23.404;2023-12-20T09:20:34;95091.03;;;1.62;94.82
77702;BME280;66868;42.708;23.404;2023-12-20T09:22:59;95083.44;;;1.67;94.22
77702;BME280;66868;42.708;23.404;2023-12-20T09:25:25;95065.22;;;1.65;93.99
77702;BME280;66868;42.708;23.404;2023-12-20T09:27:52;95055.22;;;1.65;93.66
77702;BME280;66868;42.708;23.404;2023-12-20T09:30:18;95054.16;;;1.75;93.33
77702;BME280;66868;42.708;23.404;2023-12-20T09:32:44;95055.72;;;1.77;93.54
77702;BME280;66868;42.708;23.404;2023-12-20T09:35:10;95058.94;;;1.83;93.42
77702;BME280;66868;42.708;23.404;2023-12-20T09:37:35;95046.34;;;1.87;93.57
77702;BME280;66868;42.708;23.404;2023-12-20T09:40:01;95013.41;;;1.74;93.38
77702;BME280;66868;42.708;23.404;2023-12-20T09:45:02;95004.78;;;1.86;92.48
77702;BME280;66868;42.708;23.404;2023-12-20T09:47:28;95034.16;;;2.07;92.08
77702;BME280;66868;42.708;23.404;2023-12-20T09:49:54;95006.03;;;2.01;92.26
77702;BME280;66868;42.708;23.404;2023-12-20T09:52:22;95023.03;;;2.17;92.09
77702;BME280;66868;42.708;23.404;2023-12-20T09:54:49;95016.22;;;2.24;91.70
77702;BME280;66868;42.708;23.404;2023-12-20T09:57:17;95018.75;;;2.22;91.87
77702;BME280;66868;42.708;23.404;2023-12-20T09:59:43;95023.59;;;2.27;91.98
77702;BME280;66868;42.708;23.404;2023-12-20T10:02:13;95016.88;;;2.31;91.71
77702;BME280;66868;42.708;23.404;2023-12-20T10:04:46;95016.78;;;2.34;91.22
77702;BME280;66868;42.708;23.404;2023-12-20T10:07:13;95013.22;;;2.41;91.41
77702;BME280;66868;42.708;23.404;2023-12-20T10:09:38;94980.09;;;2.36;91.32
77702;BME280;66868;42.708;23.404;2023-12-20T10:12:04;94986.22;;;2.53;91.08
77702;BME280;66868;42.708;23.404;2023-12-20T10:14:32;94997.34;;;2.71;90.75
77702;BME280;66868;42.708;23.404;2023-12-20T10:17:04;94980.31;;;2.82;90.73
77702;BME280;66868;42.708;23.404;2023-12-20T10:19:31;94961.97;;;2.83;90.55
77702;BME280;66868;42.708;23.404;2023-12-20T10:22:00;94955.44;;;2.79;90.78
77702;BME280;66868;42.708;23.404;2023-12-20T10:24:30;94986.50;;;2.98;90.22
77702;BME280;66868;42.708;23.404;2023-12-20T10:27:05;94977.13;;;3.05;89.79
77702;BME280;66868;42.708;23.404;2023-12-20T10:29:32;94966.09;;;3.10;89.36
77702;BME280;66868;42.708;23.404;2023-12-20T10:31:58;94958.41;;;3.17;89.59
77702;BME280;66868;42.708;23.404;2023-12-20T10:34:24;94956.44;;;3.26;89.01
77702;BME280;66868;42.708;23.404;2023-12-20T10:36:49;94951.63;;;3.20;88.76
77702;BME280;66868;42.708;23.404;2023-12-20T10:39:15;94947.06;;;3.06;88.90
77702;BME280;66868;42.708;23.404;2023-12-20T10:41:41;94957.88;;;3.07;89.00
77702;BME280;66868;42.708;23.404;2023-12-20T10:44:09;94956.09;;;3.10;89.03
77702;BME280;66868;42.708;23.404;2023-12-20T10:46:37;94928.06;;;3.01;88.54
77702;BME280;66868;42.708;23.404;2023-12-20T10:49:06;94925.22;;;3.11;88.13
77702;BME280;66868;42.708;23.404;2023-12-20T10:51:33;94919.25;;;3.16;88.44
77702;BME280;66868;42.708;23.404;2023-12-20T10:54:00;94927.25;;;3.27;88.45
77702;BME280;66868;42.708;23.404;2023-12-20T10:56:31;94919.47;;;3.34;88.32
77702;BME280;66868;42.708;23.404;2023-12-20T10:58:59;94929.31;;;3.39;88.51
77702;BME280;66868;42.708;23.404;2023-12-20T11:01:28;94919.97;;;3.44;88.54
77702;BME280;66868;42.708;23.404;2023-12-20T11:03:55;94916.41;;;3.51;88.48
77702;BME280;66868;42.708;23.404;2023-12-20T11:06:45;94907.81;;;3.58;87.88
77702;BME280;66868;42.708;23.404;2023-12-20T11:09:16;94901.94;;;3.59;87.44
77702;BME280;66868;42.708;23.404;2023-12-20T11:14:23;94884.91;;;3.69;88.13
77702;BME280;66868;42.708;23.404;2023-12-20T11:16:50;94896.31;;;3.76;87.85
77702;BME280;66868;42.708;23.404;2023-12-20T11:19:16;94863.25;;;3.68;87.93
77702;BME280;66868;42.708;23.404;2023-12-20T11:21:42;94886.22;;;3.79;87.47
77702;BME280;66868;42.708;23.404;2023-12-20T11:24:08;94876.91;;;3.82;87.11
77702;BME280;66868;42.708;23.404;2023-12-20T11:26:34;94863.63;;;3.80;87.02
77702;BME280;66868;42.708;23.404;2023-12-20T11:29:39;94861.03;;;3.83;87.68
77702;BME280;66868;42.708;23.404;2023-12-20T11:32:30;94845.22;;;3.81;87.43
77702;BME280;66868;42.708;23.404;2023-12-20T11:34:58;94835.09;;;3.84;87.56
77702;BME280;66868;42.708;23.404;2023-12-20T11:37:31;94836.63;;;3.88;87.69
77702;BME280;66868;42.708;23.404;2023-12-20T11:40:07;94823.13;;;3.92;87.69
77702;BME280;66868;42.708;23.404;2023-12-20T11:42:42;94823.69;;;3.99;87.78
77702;BME280;66868;42.708;23.404;2023-12-20T11:45:11;94828.59;;;4.02;87.39
77702;BME280;66868;42.708;23.404;2023-12-20T11:47:40;94811.78;;;4.06;87.64
77702;BME280;66868;42.708;23.404;2023-12-20T11:50:06;94817.34;;;4.12;87.55
77702;BME280;66868;42.708;23.404;2023-12-20T11:52:32;94810.66;;;4.13;87.26
77702;BME280;66868;42.708;23.404;2023-12-20T11:54:57;94786.31;;;3.94;87.43
77702;BME280;66868;42.708;23.404;2023-12-20T11:57:23;94792.78;;;4.00;87.09
77702;BME280;66868;42.708;23.404;2023-12-20T11:59:48;94787.38;;;4.11;87.18
77702;BME280;66868;42.708;23.404;2023-12-20T12:02:14;94795.63;;;4.13;87.78
77702;BME280;66868;42.708;23.404;2023-12-20T12:04:43;94785.72;;;4.10;87.79
77702;BME280;66868;42.708;23.404;2023-12-20T12:07:08;94776.19;;;4.19;87.50
77702;BME280;66868;42.708;23.404;2023-12-20T12:09:34;94773.63;;;4.21;87.22
77702;BME280;66868;42.708;23.404;2023-12-20T12:12:00;94758.69;;;4.18;87.55
77702;BME280;66868;42.708;23.404;2023-12-20T12:14:25;94757.78;;;4.20;87.80
77702;BME280;66868;42.708;23.404;2023-12-20T12:16:51;94754.69;;;4.14;88.16
77702;BME280;66868;42.708;23.404;2023-12-20T12:19:22;94749.53;;;4.17;87.37
77702;BME280;66868;42.708;23.404;2023-12-20T12:21:49;94750.53;;;4.13;87.43
77702;BME280;66868;42.708;23.404;2023-12-20T12:24:14;94747.41;;;4.08;87.49
77702;BME280;66868;42.708;23.404;2023-12-20T12:26:40;94750.00;;;4.06;87.82
77702;BME280;66868;42.708;23.404;2023-12-20T12:29:08;94741.16;;;3.97;87.11
77702;BME280;66868;42.708;23.404;2023-12-20T12:31:35;94740.38;;;3.95;87.85
77702;BME280;66868;42.708;23.404;2023-12-20T12:34:01;94728.09;;;3.89;87.85
77702;BME280;66868;42.708;23.404;2023-12-20T12:36:28;94740.50;;;3.92;88.10
77702;BME280;66868;42.708;23.404;2023-12-20T12:38:56;94752.91;;;3.95;87.44
77702;BME280;66868;42.708;23.404;2023-12-20T12:41:22;94750.25;;;3.98;87.43
77702;BME280;66868;42.708;23.404;2023-12-20T12:43:48;94725.72;;;3.86;87.34
77702;BME280;66868;42.708;23.404;2023-12-20T12:46:13;94742.88;;;3.95;87.78
77702;BME280;66868;42.708;23.404;2023-12-20T12:48:39;94734.88;;;3.87;87.49
77702;BME280;66868;42.708;23.404;2023-12-20T12:51:04;94731.81;;;3.79;88.00
77702;BME280;66868;42.708;23.404;2023-12-20T12:53:30;94738.22;;;3.86;88.45